Time;durP1;ratioP1;P1;durP2;ratioP2;P2;SDS_P1;SDS_P2;PMS_P1;PMS_P2;Temp;Humidity;BMP_temperature;BMP_pressure;BME280_temperature;BME280_humidity;BME280_pressure;Samples;Min_cycle;Max_cycle;Signal;HPM_P1;HPM_P2
2022/06/03 00:03:24;;;;;;;11.70;7.70;;;;;;;9.65;64.63;100954.44;2114074;84;28307;-68
2022/06/03 00:06:36;;;;;;;13.50;7.92;;;;;;;9.60;64.88;100947.03;2134264;83;28666;-68
2022/06/03 00:10:19;;;;;;;13.22;8.15;;;;;;;9.55;65.21;100954.33;2175981;81;31067;-71
2022/06/03 00:14:04;;;;;;;18.32;8.83;;;;;;;9.50;65.03;100954.50;2055166;86;34035;-70
2022/06/03 00:17:28;;;;;;;15.15;8.58;;;;;;;9.45;65.30;100956.45;2054466;86;29006;-69
2022/06/03 00:21:03;;;;;;;13.55;8.65;;;;;;;9.42;65.68;100956.58;2106223;81;27782;-68
2022/06/03 00:24:39;;;;;;;15.57;9.10;;;;;;;9.39;65.74;100950.00;2172845;81;29769;-71
2022/06/03 00:28:01;;;;;;;15.13;7.08;;;;;;;9.37;65.76;100954.52;2168004;82;31022;-72
2022/06/03 00:31:28;;;;;;;20.37;10.40;;;;;;;9.33;66.01;100946.18;2174235;81;34043;-70
2022/06/03 00:34:50;;;;;;;13.88;9.23;;;;;;;9.31;66.03;100948.92;2204138;80;29171;-67
2022/06/03 00:38:15;;;;;;;14.55;9.23;;;;;;;9.25;65.97;100947.33;2249200;79;28025;-67
2022/06/03 00:41:48;;;;;;;21.87;10.55;;;;;;;9.23;66.21;100942.94;2250179;78;29056;-67
2022/06/03 00:45:16;;;;;;;18.55;10.05;;;;;;;9.21;66.28;100940.33;2165005;80;31069;-67
2022/06/03 00:48:47;;;;;;;17.02;9.60;;;;;;;9.18;66.45;100941.77;2165300;82;33225;-67
2022/06/03 00:52:24;;;;;;;18.25;10.03;;;;;;;9.13;66.46;100942.37;2164733;82;29192;-66
2022/06/03 00:55:40;;;;;;;15.63;10.05;;;;;;;9.09;66.49;100938.94;2107112;84;28363;-67
2022/06/03 00:59:11;;;;;;;19.05;9.88;;;;;;;9.05;67.05;100945.30;2106849;84;29156;-68
2022/06/03 01:02:47;;;;;;;16.73;9.35;;;;;;;9.02;67.16;100941.86;2086087;84;31039;-67
2022/06/03 01:06:03;;;;;;;16.12;8.20;;;;;;;9.00;67.20;100940.59;2077549;85;32856;-67
2022/06/03 01:09:21;;;;;;;13.43;8.70;;;;;;;8.96;67.26;100937.12;2077132;85;29391;-67
2022/06/03 01:12:57;;;;;;;16.45;9.13;;;;;;;8.93;67.22;100941.25;2076559;85;27827;-67
2022/06/03 01:16:27;;;;;;;14.03;8.33;;;;;;;8.90;67.19;100944.02;2075436;85;28778;-67
2022/06/03 01:20:00;;;;;;;13.62;8.88;;;;;;;8.85;67.37;100947.77;2064572;85;31036;-67
2022/06/03 01:23:22;;;;;;;12.07;8.80;;;;;;;8.80;67.41;100939.88;2098458;84;34144;-67
2022/06/03 01:27:02;;;;;;;12.00;8.63;;;;;;;8.76;67.44;100942.26;2100317;84;29907;-68
2022/06/03 01:30:26;;;;;;;14.87;9.18;;;;;;;8.72;67.54;100953.95;2188956;80;27787;-69
2022/06/03 01:33:54;;;;;;;14.53;8.63;;;;;;;8.68;67.57;100952.30;2206380;80;28671;-68
2022/06/03 01:37:10;;;;;;;12.93;8.60;;;;;;;8.62;67.50;100952.03;2215937;80;31011;-69
2022/06/03 01:40:35;;;;;;;15.68;9.30;;;;;;;8.57;67.66;100954.84;2215848;80;33771;-70
2022/06/03 01:43:44;;;;;;;11.95;8.98;;;;;;;8.53;67.67;100943.84;2221742;79;29042;-69
2022/06/03 01:47:11;;;;;;;17.20;8.98;;;;;;;8.48;67.96;100941.31;2248542;79;28216;-68
2022/06/03 01:50:18;;;;;;;14.53;8.68;;;;;;;8.46;68.07;100938.22;2249134;79;29515;-68
2022/06/03 01:53:52;;;;;;;12.90;9.45;;;;;;;8.42;68.12;100945.94;2246809;79;31071;-69
2022/06/03 01:57:29;;;;;;;13.55;9.68;;;;;;;8.40;68.26;100947.78;2248724;79;33744;-68
2022/06/03 02:00:42;;;;;;;14.28;8.30;;;;;;;8.37;68.37;100947.39;2249010;78;29021;-66
2022/06/03 02:04:07;;;;;;;13.08;9.18;;;;;;;8.35;68.51;100947.92;2093466;85;27773;-67
2022/06/03 02:07:37;;;;;;;11.07;6.87;;;;;;;8.32;68.67;100944.00;2093423;85;28841;-69
2022/06/03 02:11:19;;;;;;;12.18;8.78;;;;;;;8.30;68.80;100948.51;2090547;85;32171;-70
2022/06/03 02:14:49;;;;;;;13.03;9.08;;;;;;;8.26;68.87;100940.17;2045896;87;33512;-66
2022/06/03 02:18:14;;;;;;;15.10;9.98;;;;;;;8.24;68.94;100943.34;2045956;87;30240;-71
2022/06/03 02:22:02;;;;;;;10.78;7.20;;;;;;;8.21;69.20;100952.32;2051565;85;27712;-67
2022/06/03 02:25:31;;;;;;;11.20;8.88;;;;;;;8.18;69.35;100937.73;2012629;88;28719;-65
2022/06/03 02:32:40;;;;;;;13.28;9.25;;;;;;;8.14;69.55;100939.63;1913950;92;34261;-66
2022/06/03 02:36:25;;;;;;;11.22;8.98;;;;;;;8.13;69.49;100944.98;1924894;92;29437;-65
2022/06/03 02:40:01;;;;;;;13.48;9.45;;;;;;;8.11;69.71;100941.52;1928194;87;28313;-65
2022/06/03 02:43:19;;;;;;;13.35;8.50;;;;;;;8.10;69.72;100947.77;2111628;84;29074;-64
2022/06/03 02:46:53;;;;;;;13.32;9.80;;;;;;;8.09;69.71;100954.02;2115277;83;31398;-64
2022/06/03 02:50:26;;;;;;;13.38;9.05;;;;;;;8.07;69.82;100952.71;2029662;87;32790;-64
2022/06/03 02:54:04;;;;;;;12.93;8.10;;;;;;;8.08;69.81;100944.27;1944653;88;29388;-69
2022/06/03 02:57:35;;;;;;;15.15;10.00;;;;;;;8.09;69.82;100954.02;1940683;91;27857;-68
2022/06/03 03:01:10;;;;;;;12.53;9.83;;;;;;;8.10;70.09;100949.96;1990810;88;29490;-66
2022/06/03 03:04:41;;;;;;;13.22;9.95;;;;;;;8.12;69.96;100952.57;2000973;88;31655;-67
2022/06/03 03:08:20;;;;;;;17.62;10.35;;;;;;;8.13;69.97;100956.55;2000661;89;34141;-69
2022/06/03 03:11:31;;;;;;;20.05;10.08;;;;;;;8.16;70.07;100957.80;2010894;87;29019;-67
2022/06/03 03:15:07;;;;;;;14.70;9.83;;;;;;;8.19;70.08;100956.35;2040923;87;27702;-67
2022/06/03 03:18:45;;;;;;;12.40;10.00;;;;;;;8.23;70.01;100959.83;2041290;87;28434;-68
2022/06/03 03:22:15;;;;;;;16.40;11.00;;;;;;;8.27;70.08;100955.27;2078633;85;32253;-67
2022/06/03 03:25:48;;;;;;;15.45;11.35;;;;;;;8.32;70.25;100955.54;2080831;84;34108;-68
2022/06/03 03:29:05;;;;;;;21.77;11.97;;;;;;;8.41;70.31;100953.53;2105174;81;29130;-69
2022/06/03 03:32:26;;;;;;;19.55;11.43;;;;;;;8.48;70.29;100956.00;2155618;82;27701;-68
2022/06/03 03:35:45;;;;;;;15.00;11.18;;;;;;;8.56;70.20;100958.44;2156103;82;28649;-67
2022/06/03 03:39:16;;;;;;;15.53;11.30;;;;;;;8.63;70.29;100961.31;2155536;82;31033;-69
2022/06/03 03:42:26;;;;;;;17.75;12.40;;;;;;;8.73;70.18;100964.58;2155629;82;32969;-67
2022/06/03 03:45:48;;;;;;;18.15;11.25;;;;;;;8.79;70.21;100969.74;2155430;82;29044;-67
2022/06/03 03:49:10;;;;;;;17.40;11.43;;;;;;;8.88;70.22;100970.36;2155318;82;27656;-67
2022/06/03 03:52:52;;;;;;;17.05;12.80;;;;;;;8.95;70.21;100972.78;2154818;82;29368;-67
2022/06/03 03:56:22;;;;;;;17.55;12.10;;;;;;;9.05;70.21;100977.84;2155024;82;32381;-68
2022/06/03 03:59:34;;;;;;;22.52;12.90;;;;;;;9.16;70.11;100980.18;2161580;81;33282;-66
2022/06/03 04:03:03;;;;;;;17.45;12.90;;;;;;;9.26;70.20;100978.49;2193484;81;29157;-66
2022/06/03 04:06:14;;;;;;;22.48;13.08;;;;;;;9.39;70.27;100987.43;2193865;81;27608;-66
2022/06/03 04:09:32;;;;;;;23.18;12.90;;;;;;;9.52;70.15;100983.41;2193541;81;29669;-67
2022/06/03 04:12:57;;;;;;;17.35;12.93;;;;;;;9.64;70.15;100976.77;2193503;81;31905;-69
2022/06/03 04:16:19;;;;;;;17.67;12.67;;;;;;;9.79;70.12;100979.34;2151807;82;33337;-67
2022/06/03 04:19:41;;;;;;;17.67;11.88;;;;;;;9.95;70.08;100981.47;2151054;82;30107;-66
2022/06/03 04:23:14;;;;;;;18.17;12.93;;;;;;;10.09;69.84;100980.98;2193821;81;27643;-67
2022/06/03 04:26:44;;;;;;;15.50;11.12;;;;;;;10.25;70.11;100982.64;2164849;81;27641;-67
2022/06/03 04:30:12;;;;;;;18.75;12.73;;;;;;;10.41;69.73;100981.17;2192890;81;31970;-67
2022/06/03 04:33:27;;;;;;;19.50;11.80;;;;;;;10.58;69.44;100978.31;2193328;81;33388;-67
2022/06/03 04:37:12;;;;;;;16.42;11.78;;;;;;;10.78;69.36;100981.05;2150198;82;28826;-68
2022/06/03 04:40:39;;;;;;;15.45;11.25;;;;;;;10.98;69.30;100979.39;2151732;82;27690;-69
2022/06/03 04:44:08;;;;;;;13.83;10.15;;;;;;;11.96;70.34;100984.70;2193695;81;29055;-68
2022/06/03 04:47:41;;;;;;;12.10;9.65;;;;;;;13.89;69.13;100969.66;2193280;81;32187;-69
2022/06/03 04:51:16;;;;;;;11.05;9.43;;;;;;;15.85;67.36;100969.89;2190720;81;33144;-69
2022/06/03 04:55:07;;;;;;;16.90;8.80;;;;;;;17.84;64.45;100959.77;2192870;81;29464;-69
2022/06/03 04:58:37;;;;;;;14.18;8.55;;;;;;;19.43;61.73;100956.88;2193005;81;27655;-67
2022/06/03 05:02:17;;;;;;;11.43;8.35;;;;;;;21.03;59.40;100959.24;2193342;81;28461;-69
2022/06/03 05:05:51;;;;;;;12.43;8.33;;;;;;;22.29;57.77;100956.22;2193810;81;31378;-67
2022/06/03 05:09:32;;;;;;;8.33;7.37;;;;;;;23.54;55.43;100953.59;2191002;81;33617;-68
2022/06/03 05:13:17;;;;;;;10.58;6.92;;;;;;;24.68;53.90;100956.77;2155601;82;29396;-70
2022/06/03 05:16:50;;;;;;;11.80;7.22;;;;;;;25.79;51.42;100952.94;2079610;85;27782;-67
2022/06/03 05:19:59;;;;;;;10.38;6.85;;;;;;;26.97;50.16;100957.02;2097445;82;28658;-71
2022/06/03 05:23:29;;;;;;;13.32;7.22;;;;;;;27.88;46.21;100955.70;2139015;82;32075;-72
2022/06/03 05:27:03;;;;;;;9.43;6.87;;;;;;;28.55;46.37;100963.31;2072137;85;33360;-66
2022/06/03 05:30:43;;;;;;;10.63;7.28;;;;;;;28.96;44.26;100960.90;2072091;85;30339;-69
2022/06/03 05:34:08;;;;;;;10.03;8.03;;;;;;;29.48;41.14;100958.50;2094850;84;27716;-66
2022/06/03 05:37:33;;;;;;;9.85;7.35;;;;;;;29.47;40.49;100958.17;2110198;84;28904;-67
2022/06/03 05:41:02;;;;;;;13.20;7.25;;;;;;;29.69;39.62;100965.58;2110951;84;31765;-67
2022/06/03 05:44:24;;;;;;;8.03;7.20;;;;;;;29.48;36.88;100959.34;2085185;84;33708;-69
2022/06/03 05:47:37;;;;;;;10.93;7.35;;;;;;;29.48;37.12;100953.83;2073880;85;30319;-67
2022/06/03 05:51:01;;;;;;;7.37;6.60;;;;;;;29.29;34.84;100956.55;2078160;84;27768;-68
2022/06/03 05:54:27;;;;;;;10.35;7.33;;;;;;;29.35;35.58;100945.31;2109545;84;28621;-67
2022/06/03 05:57:40;;;;;;;11.60;6.42;;;;;;;29.62;35.63;100950.78;2109462;84;32324;-69
2022/06/03 06:01:01;;;;;;;11.93;6.55;;;;;;;29.97;35.43;100946.16;2086358;84;34121;-70
2022/06/03 06:04:16;;;;;;;7.97;5.70;;;;;;;30.53;34.96;100944.84;2083271;85;30302;-68
2022/06/03 06:07:43;;;;;;;8.95;5.45;;;;;;;31.12;34.50;100942.98;2084830;85;28039;-68
2022/06/03 06:11:14;;;;;;;5.47;4.97;;;;;;;31.63;33.00;100944.80;2094556;85;28653;-67
2022/06/03 06:14:40;;;;;;;6.62;5.25;;;;;;;32.04;31.67;100945.44;2023307;86;32268;-68
2022/06/03 06:18:03;;;;;;;5.70;4.62;;;;;;;32.20;31.82;100951.21;1990742;89;34232;-67
2022/06/03 06:21:31;;;;;;;5.60;4.65;;;;;;;32.65;31.53;100948.06;1981952;89;30155;-68
2022/06/03 06:24:53;;;;;;;4.80;4.17;;;;;;;33.11;30.56;100941.50;2074838;85;27738;-67
2022/06/03 06:28:00;;;;;;;6.37;3.85;;;;;;;33.23;30.23;100938.97;2086590;85;29058;-67
2022/06/03 06:31:43;;;;;;;7.50;3.62;;;;;;;33.36;28.26;100943.17;2086679;85;31198;-71
2022/06/03 06:34:52;;;;;;;4.75;3.33;;;;;;;33.44;28.70;100947.67;2050751;85;33152;-69
2022/06/03 06:37:59;;;;;;;3.25;2.87;;;;;;;33.67;27.64;100943.62;2042111;87;29399;-71
2022/06/03 06:41:18;;;;;;;4.87;3.00;;;;;;;33.90;27.66;100942.66;2059361;85;27771;-71
2022/06/03 06:44:37;;;;;;;3.75;2.10;;;;;;;34.22;27.32;100932.23;2099194;84;28696;-70
2022/06/03 06:47:50;;;;;;;7.67;2.50;;;;;;;34.03;24.52;100932.58;2114992;84;31478;-72
2022/06/03 06:51:00;;;;;;;6.58;2.12;;;;;;;34.01;25.48;100928.64;2146775;81;32101;-68
2022/06/03 06:54:48;;;;;;;3.33;2.00;;;;;;;34.26;23.98;100927.92;2193121;81;29060;-69
2022/06/03 06:57:55;;;;;;;3.17;2.30;;;;;;;34.30;25.00;100926.41;2193131;81;27711;-72
2022/06/03 07:00:59;;;;;;;5.15;2.67;;;;;;;34.32;24.09;100925.66;2148063;82;29539;-70
2022/06/03 07:04:14;;;;;;;5.72;3.05;;;;;;;34.22;23.57;100929.45;2109132;84;31861;-72
2022/06/03 07:07:24;;;;;;;4.53;2.60;;;;;;;34.23;24.40;100932.00;2111811;84;32968;-72
2022/06/03 07:10:31;;;;;;;5.50;3.37;;;;;;;33.96;23.74;100925.64;2111845;84;29042;-70
2022/06/03 07:13:57;;;;;;;4.70;2.70;;;;;;;34.16;24.57;100924.23;2087772;84;27702;-70
2022/06/03 07:20:42;;;;;;;4.42;2.42;;;;;;;34.19;23.72;100921.54;2111590;84;32226;-70
2022/06/03 07:24:01;;;;;;;3.47;2.40;;;;;;;34.39;23.84;100908.42;2109777;84;33817;-68
2022/06/03 07:27:07;;;;;;;4.70;2.58;;;;;;;34.45;23.24;100908.11;2147812;82;29374;-71
2022/06/03 07:30:35;;;;;;;4.78;2.70;;;;;;;34.48;23.95;100907.67;2148429;82;28008;-71
2022/06/03 07:33:41;;;;;;;2.92;2.52;;;;;;;34.94;23.56;100909.06;2147784;82;29058;-66
2022/06/03 07:36:59;;;;;;;3.42;2.40;;;;;;;34.98;21.92;100897.80;2109006;84;32142;-65
2022/06/03 07:40:15;;;;;;;3.77;1.98;;;;;;;34.91;23.03;100895.03;2111461;84;33023;-67
2022/06/03 07:43:51;;;;;;;6.42;3.22;;;;;;;35.28;23.41;100897.15;2107253;84;28911;-65
2022/06/03 07:47:03;;;;;;;5.53;2.25;;;;;;;35.65;22.59;100893.11;2147692;82;27714;-70
2022/06/03 07:50:09;;;;;;;5.40;2.60;;;;;;;35.77;22.05;100887.61;2148166;82;29494;-66
2022/06/03 07:53:18;;;;;;;5.08;2.47;;;;;;;35.55;22.13;100893.63;2147952;82;31077;-71
2022/06/03 07:56:25;;;;;;;4.92;2.20;;;;;;;35.31;21.84;100887.47;2115205;84;32959;-71
2022/06/03 07:59:26;;;;;;;2.55;2.00;;;;;;;35.20;21.24;100894.63;2193804;81;28487;-69
2022/06/03 08:02:28;;;;;;;2.65;1.65;;;;;;;34.85;21.41;100884.78;2194067;81;27718;-69
2022/06/03 08:05:30;;;;;;;3.15;2.10;;;;;;;34.78;21.40;100888.13;2193788;81;29535;-70
2022/06/03 08:11:55;;;;;;;2.35;1.67;;;;;;;34.99;21.60;100886.42;2132338;82;34301;-67
2022/06/03 08:14:57;;;;;;;4.50;1.87;;;;;;;35.23;21.48;100885.30;2194012;81;29435;-69
2022/06/03 08:18:00;;;;;;;3.12;2.05;;;;;;;35.47;21.74;100882.76;2194001;81;27668;-70
2022/06/03 08:21:05;;;;;;;2.40;2.00;;;;;;;35.44;21.58;100881.30;2194297;81;29880;-67
2022/06/03 08:24:11;;;;;;;1.60;1.50;;;;;;;35.35;21.33;100874.25;2192864;81;32308;-70
2022/06/03 08:27:16;;;;;;;3.27;1.92;;;;;;;34.95;20.98;100871.23;2154888;82;33031;-70
2022/06/03 08:30:22;;;;;;;4.55;1.85;;;;;;;34.49;20.70;100870.95;2155199;82;29016;-70
2022/06/03 08:33:45;;;;;;;4.35;1.90;;;;;;;34.07;20.53;100875.47;2193967;81;27775;-71
2022/06/03 08:36:46;;;;;;;2.10;1.80;;;;;;;33.54;20.85;100875.02;2194092;81;29485;-69
2022/06/03 08:39:49;;;;;;;3.98;1.70;;;;;;;32.91;21.07;100876.23;2194233;81;31376;-70
2022/06/03 08:43:08;;;;;;;3.42;1.92;;;;;;;32.76;21.77;100884.18;2194043;81;35212;-71
2022/06/03 08:46:29;;;;;;;5.10;2.15;;;;;;;32.96;22.03;100870.38;2081321;85;29805;-67
2022/06/03 08:50:00;;;;;;;3.77;2.15;;;;;;;32.88;21.83;100876.98;2108809;84;27722;-67
2022/06/03 08:53:26;;;;;;;7.67;2.00;;;;;;;32.52;21.44;100869.80;2118395;84;29075;-67
2022/06/03 08:56:34;;;;;;;6.95;2.15;;;;;;;32.21;22.44;100864.72;2155882;82;31450;-67
2022/06/03 08:59:40;;;;;;;2.65;2.12;;;;;;;32.17;22.39;100870.38;2156120;82;33794;-66
2022/06/03 09:03:08;;;;;;;2.58;2.20;;;;;;;32.08;22.44;100858.60;2081592;85;29027;-67
2022/06/03 09:06:33;;;;;;;4.40;1.60;;;;;;;31.61;22.31;100859.66;2155988;82;27861;-68
2022/06/03 09:09:52;;;;;;;5.33;2.83;;;;;;;31.39;23.38;100858.86;2156408;82;28655;-67
2022/06/03 09:13:25;;;;;;;4.60;2.10;;;;;;;31.37;23.54;100860.42;2079738;85;31024;-66
2022/06/03 09:16:28;;;;;;;2.30;2.10;;;;;;;31.34;23.55;100863.07;2081569;85;33059;-66
2022/06/03 09:19:43;;;;;;;2.53;2.03;;;;;;;31.43;23.59;100860.17;2118972;84;29090;-67
2022/06/03 09:22:46;;;;;;;4.65;2.12;;;;;;;31.34;23.89;100853.38;2118629;84;27725;-68
2022/06/03 09:25:54;;;;;;;4.58;1.75;;;;;;;31.50;24.40;100852.75;2151367;82;29026;-68
2022/06/03 09:28:59;;;;;;;2.65;1.75;;;;;;;31.45;23.41;100855.27;2116743;84;30996;-69
2022/06/03 09:32:04;;;;;;;2.15;1.72;;;;;;;31.44;24.04;100857.19;2117202;84;32968;-68
2022/06/03 09:35:13;;;;;;;1.70;1.60;;;;;;;31.43;23.96;100857.41;2116286;84;29879;-68
2022/06/03 09:38:19;;;;;;;2.47;1.95;;;;;;;31.35;23.95;100855.64;2155353;82;27535;-68
2022/06/03 09:41:24;;;;;;;6.60;1.87;;;;;;;31.19;23.67;100860.37;2193767;81;29613;-68
2022/06/03 09:44:27;;;;;;;2.92;2.30;;;;;;;31.02;23.89;100858.39;2155028;82;31028;-68
2022/06/03 09:47:29;;;;;;;2.40;2.20;;;;;;;30.83;24.16;100861.81;2116274;84;34365;-69
2022/06/03 09:50:31;;;;;;;2.27;2.05;;;;;;;30.59;24.02;100853.69;2116647;84;29024;-68
2022/06/03 09:53:36;;;;;;;3.30;2.33;;;;;;;30.31;24.20;100848.00;2116845;84;27774;-69
2022/06/03 09:56:37;;;;;;;3.87;1.92;;;;;;;29.97;24.30;100850.34;2149601;82;29506;-69
2022/06/03 09:59:47;;;;;;;3.05;1.90;;;;;;;29.68;24.83;100846.49;2144971;81;31920;-70
2022/06/03 10:02:49;;;;;;;2.67;1.70;;;;;;;29.58;24.54;100838.15;2146981;82;32968;-69
2022/06/03 10:05:54;;;;;;;3.72;1.87;;;;;;;29.12;24.67;100841.31;2147050;82;29028;-70
2022/06/03 10:16:00;;;;;;;2.75;1.80;;;;;;;27.89;25.39;100836.79;2146596;82;31072;-69
2022/06/03 10:18:58;;;;;;;3.67;2.10;;;;;;;27.64;25.37;100831.87;2146448;81;33100;-69
2022/06/03 10:21:59;;;;;;;3.92;2.00;;;;;;;27.34;26.08;100835.67;2134022;83;29095;-72
2022/06/03 10:25:00;;;;;;;3.00;1.70;;;;;;;27.15;26.60;100837.22;2179315;81;27716;-71
2022/06/03 10:28:05;;;;;;;2.27;1.90;;;;;;;27.09;26.44;100832.42;2181997;81;28684;-72
2022/06/03 10:31:15;;;;;;;3.52;1.70;;;;;;;26.97;26.52;100833.80;2181767;81;31071;-73
2022/06/03 10:34:23;;;;;;;4.70;1.80;;;;;;;26.96;27.16;100832.92;2181449;81;33764;-65
2022/06/03 10:37:26;;;;;;;4.60;2.00;;;;;;;26.85;26.77;100825.03;2181615;81;30193;-70
2022/06/03 10:40:28;;;;;;;7.83;1.90;;;;;;;26.83;27.35;100831.20;2147132;82;27587;-73
2022/06/03 10:43:33;;;;;;;3.12;2.80;;;;;;;26.82;28.00;100828.95;2146928;82;28108;-69
2022/06/03 10:46:34;;;;;;;2.80;2.02;;;;;;;26.93;27.83;100822.27;2181531;81;31025;-70
2022/06/03 10:49:55;;;;;;;6.97;1.95;;;;;;;26.96;27.95;100820.55;2181742;81;32937;-67
2022/06/03 11:03:29;;;;;;;3.27;2.05;;;;;;;26.95;28.07;100804.23;2133739;83;31105;-66
2022/06/03 11:06:39;;;;;;;6.65;1.50;;;;;;;27.03;28.26;100792.38;2170954;81;32964;-65
2022/06/03 11:09:46;;;;;;;3.87;1.65;;;;;;;27.08;28.12;100795.45;2171036;82;29929;-67
2022/06/03 11:12:48;;;;;;;1.92;1.80;;;;;;;27.05;27.84;100794.45;2169404;80;27694;-67
2022/06/03 11:15:49;;;;;;;1.80;1.70;;;;;;;27.07;27.84;100784.10;2147480;82;29206;-67
2022/06/03 11:18:51;;;;;;;3.20;2.15;;;;;;;27.18;27.94;100784.27;2171170;82;31364;-66
2022/06/03 11:22:25;;;;;;;2.40;1.85;;;;;;;27.25;27.79;100781.18;2171189;81;34137;-66
2022/06/03 11:25:29;;;;;;;4.72;1.72;;;;;;;27.29;27.70;100784.77;2171181;81;29225;-66
2022/06/03 11:28:47;;;;;;;2.10;1.70;;;;;;;27.20;27.44;100773.45;2136099;83;27743;-65
2022/06/03 11:31:50;;;;;;;2.22;1.75;;;;;;;27.11;28.31;100775.36;2135964;83;29925;-66
2022/06/03 11:34:57;;;;;;;3.15;1.92;;;;;;;27.05;27.81;100766.41;2135171;83;30480;-66
2022/06/03 11:38:00;;;;;;;2.20;1.60;;;;;;;27.02;27.66;100754.38;2166047;82;33306;-66
2022/06/03 11:41:06;;;;;;;4.13;2.13;;;;;;;26.99;27.94;100755.59;2136542;83;29835;-66
2022/06/03 11:44:19;;;;;;;1.50;1.40;;;;;;;27.04;27.56;100751.47;2136172;82;28314;-66
2022/06/03 11:47:25;;;;;;;6.35;1.37;;;;;;;27.06;28.03;100740.63;2171322;82;29084;-68
2022/06/03 11:50:28;;;;;;;2.75;1.50;;;;;;;27.08;27.90;100744.07;2147664;82;32225;-66
2022/06/03 11:53:34;;;;;;;3.83;1.50;;;;;;;26.98;26.76;100740.12;2171028;81;32976;-66
2022/06/03 11:56:36;;;;;;;2.60;1.57;;;;;;;26.84;26.60;100735.33;2113518;82;28987;-66
2022/06/03 11:59:50;;;;;;;1.98;1.50;;;;;;;26.67;26.71;100730.30;2174273;81;27641;-65
2022/06/03 12:03:04;;;;;;;;;;;;;;;26.62;26.87;100729.98;2110429;84;29508;-67
2022/06/03 12:06:19;;;;;;;3.17;1.45;;;;;;;26.56;26.75;100719.66;2107919;84;31480;-68
2022/06/03 12:09:59;;;;;;;1.60;1.40;;;;;;;26.52;27.34;100714.50;2192957;81;33055;-66
2022/06/03 12:13:31;;;;;;;2.15;1.70;;;;;;;26.55;27.20;100706.45;2192632;81;30208;-67
2022/06/03 12:16:50;;;;;;;1.90;1.50;;;;;;;26.49;27.48;100709.34;2192678;81;27660;-68
2022/06/03 12:19:53;;;;;;;2.37;1.40;;;;;;;26.51;27.44;100702.32;2192873;81;29043;-67
2022/06/03 12:22:54;;;;;;;6.22;1.62;;;;;;;26.51;27.41;100697.67;2151319;82;31849;-67
2022/06/03 12:26:13;;;;;;;1.30;1.20;;;;;;;26.47;27.37;100690.83;2151249;82;32957;-67
2022/06/03 12:29:22;;;;;;;3.02;1.40;;;;;;;26.45;27.51;100692.88;2193007;81;28214;-67
2022/06/03 12:32:28;;;;;;;2.02;1.47;;;;;;;26.43;27.09;100693.56;2192728;81;27762;-67
2022/06/03 12:35:55;;;;;;;2.70;1.37;;;;;;;26.38;27.33;100690.45;2193063;81;28648;-66
2022/06/03 12:39:08;;;;;;;1.45;1.35;;;;;;;26.34;27.15;100684.45;2192655;81;32228;-66
2022/06/03 12:42:30;;;;;;;5.97;1.57;;;;;;;26.29;27.79;100678.60;2193282;81;33326;-67
2022/06/03 12:45:34;;;;;;;4.42;1.90;;;;;;;26.27;28.09;100675.16;2151466;82;30244;-67
2022/06/03 12:48:50;;;;;;;3.10;1.40;;;;;;;26.28;28.25;100668.64;2153442;82;27729;-66
2022/06/03 12:52:07;;;;;;;2.83;2.12;;;;;;;26.26;28.00;100667.11;2153284;82;28724;-67
2022/06/03 12:55:28;;;;;;;2.02;1.45;;;;;;;26.21;28.03;100655.27;2172154;81;27778;-66
2022/06/03 12:58:39;;;;;;;5.33;1.82;;;;;;;26.23;28.29;100647.69;2193355;81;32971;-66
2022/06/03 13:02:04;;;;;;;5.22;1.60;;;;;;;26.27;28.47;100646.85;2193938;81;30195;-66
2022/06/03 13:05:10;;;;;;;1.47;1.32;;;;;;;26.28;28.22;100638.95;2192120;81;27648;-65
2022/06/03 13:09:34;;;;;;;1.65;1.20;;;;;;;26.19;27.57;100644.44;2152286;82;28875;-65
2022/06/03 13:11:44;;;;;;;4.15;1.47;;;;;;;26.12;27.92;100639.30;2151167;82;31196;-65
2022/06/03 13:14:45;;;;;;;1.75;1.40;;;;;;;26.07;28.22;100631.51;2154431;82;33173;-66
2022/06/03 13:18:18;;;;;;;4.40;1.75;;;;;;;26.05;27.88;100630.85;2116564;84;30170;-66
2022/06/03 13:21:31;;;;;;;4.10;1.22;;;;;;;26.02;28.11;100627.56;2115801;84;27727;-66
2022/06/03 13:24:41;;;;;;;3.15;1.42;;;;;;;26.08;28.46;100621.41;2111036;84;28497;-66
2022/06/03 13:28:05;;;;;;;4.67;1.45;;;;;;;26.14;28.20;100617.14;2154936;82;32086;-68
2022/06/03 13:31:24;;;;;;;3.60;1.47;;;;;;;26.11;27.60;100606.00;2154826;82;32972;-67
2022/06/03 13:34:41;;;;;;;2.22;1.72;;;;;;;26.10;27.99;100612.48;2193383;81;29063;-68
2022/06/03 13:38:19;;;;;;;1.95;1.55;;;;;;;26.02;27.84;100601.48;2194220;81;28254;-68
2022/06/03 13:45:05;;;;;;;1.85;1.42;;;;;;;25.98;28.10;100591.36;2186768;81;27796;-67
2022/06/03 13:48:12;;;;;;;1.65;1.42;;;;;;;25.84;27.91;100590.13;2154913;82;32966;-66
2022/06/03 13:51:36;;;;;;;2.85;1.47;;;;;;;25.70;27.90;100579.83;2127863;82;29393;-66
2022/06/03 13:54:42;;;;;;;2.80;1.52;;;;;;;25.62;28.04;100590.27;2139206;82;27638;-68
2022/06/03 13:57:51;;;;;;;3.50;1.80;;;;;;;25.52;28.10;100582.19;2116907;84;29448;-66
2022/06/03 14:01:01;;;;;;;3.47;1.80;;;;;;;25.48;28.26;100578.92;2191480;81;31985;-67
2022/06/03 14:04:19;;;;;;;2.50;1.57;;;;;;;25.58;28.28;100569.67;2191513;81;33348;-67
2022/06/03 14:07:29;;;;;;;2.00;1.80;;;;;;;25.74;28.41;100564.22;2191285;81;29393;-66
2022/06/03 14:10:36;;;;;;;2.08;1.90;;;;;;;25.89;28.38;100563.58;2155912;82;27796;-67
2022/06/03 14:13:58;;;;;;;1.60;1.50;;;;;;;25.91;28.40;100562.36;2154362;82;28661;-66
2022/06/03 14:17:17;;;;;;;2.75;1.80;;;;;;;25.90;28.58;100555.16;2191537;81;31030;-66
2022/06/03 14:20:44;;;;;;;2.35;1.62;;;;;;;25.81;28.68;100556.69;2166951;81;28385;-66
2022/06/03 14:23:47;;;;;;;1.45;1.17;;;;;;;25.78;28.60;100560.64;2113401;84;30324;-66
2022/06/03 14:26:57;;;;;;;3.85;1.70;;;;;;;25.72;28.98;100564.92;2114285;84;27830;-66
2022/06/03 14:30:07;;;;;;;1.87;1.67;;;;;;;25.72;28.90;100557.19;2113715;84;28840;-70
2022/06/03 14:33:09;;;;;;;6.05;2.10;;;;;;;25.76;28.94;100558.58;2103158;82;31138;-66
2022/06/03 14:36:11;;;;;;;3.35;1.87;;;;;;;25.76;29.04;100552.56;2077586;85;34313;-67
2022/06/03 14:39:27;;;;;;;4.28;1.92;;;;;;;25.81;29.34;100547.08;2079429;84;29469;-67
2022/06/03 14:42:32;;;;;;;2.12;1.92;;;;;;;25.84;29.55;100546.22;2082713;84;27907;-68
2022/06/03 14:45:39;;;;;;;2.47;1.70;;;;;;;25.82;29.55;100549.64;2114368;84;28669;-67
2022/06/03 14:48:46;;;;;;;3.15;1.77;;;;;;;25.84;29.77;100544.00;2114072;82;31138;-67
2022/06/03 14:51:54;;;;;;;2.33;1.25;;;;;;;25.82;29.60;100536.45;2113918;84;33023;-66
2022/06/03 14:55:03;;;;;;;2.47;1.70;;;;;;;25.78;29.71;100536.78;2082631;84;30225;-66
2022/06/03 14:58:26;;;;;;;2.10;1.90;;;;;;;25.76;29.87;100530.61;2082216;82;27801;-67
2022/06/03 15:01:47;;;;;;;5.28;2.17;;;;;;;25.70;29.81;100527.19;2155314;82;28712;-66
2022/06/03 15:04:57;;;;;;;4.20;1.30;;;;;;;25.67;29.84;100529.39;2188458;81;32334;-66
2022/06/03 15:08:13;;;;;;;2.45;2.02;;;;;;;25.60;30.15;100528.72;2183767;81;34365;-68
2022/06/03 15:11:44;;;;;;;2.33;1.95;;;;;;;25.61;30.33;100525.45;2193542;81;29064;-70
2022/06/03 15:14:46;;;;;;;2.70;2.00;;;;;;;25.61;30.55;100528.19;2118571;84;27632;-67
2022/06/03 15:17:48;;;;;;;1.30;1.20;;;;;;;25.61;30.50;100518.09;2193631;81;28223;-68
2022/06/03 15:21:08;;;;;;;1.80;1.67;;;;;;;25.68;30.89;100520.13;2155211;82;32348;-69
2022/06/03 15:24:10;;;;;;;3.85;1.70;;;;;;;25.75;30.88;100522.03;2124034;82;32950;-68
2022/06/03 15:27:12;;;;;;;3.55;1.80;;;;;;;25.85;30.85;100525.14;2144783;83;29660;-68
2022/06/03 15:30:37;;;;;;;2.40;1.75;;;;;;;25.94;30.83;100513.98;2145013;83;27762;-68
2022/06/03 15:33:44;;;;;;;6.03;2.02;;;;;;;26.03;31.22;100516.72;2144299;82;29826;-69
2022/06/03 15:36:50;;;;;;;3.47;1.92;;;;;;;26.14;31.04;100510.92;2147871;82;31074;-68
2022/06/03 15:39:54;;;;;;;6.75;5.78;;;;;;;26.19;30.98;100513.14;2147328;82;33080;-68
2022/06/03 15:43:04;;;;;;;3.62;3.02;;;;;;;26.19;30.96;100504.91;2147682;82;28815;-68
2022/06/03 15:46:05;;;;;;;2.40;1.82;;;;;;;26.14;30.59;100510.92;2183135;81;27769;-66
2022/06/03 15:49:11;;;;;;;1.87;1.77;;;;;;;26.08;30.89;100510.20;2182894;81;29932;-67
2022/06/03 15:52:16;;;;;;;2.70;2.15;;;;;;;25.98;30.61;100507.63;2183337;81;31695;-67